sensor_id;sensor_type;location;lat;lon;timestamp;P1;durP1;ratioP1;P2;durP2;ratioP2
6013;SDS011;3035;49.928;8.410;2024-01-16T00:02:04;7.63;;;2.80;;
6013;SDS011;3035;49.928;8.410;2024-01-16T00:04:31;4.80;;;2.60;;
6013;SDS011;3035;49.928;8.410;2024-01-16T00:06:59;3.03;;;2.10;;
6013;SDS011;3035;49.928;8.410;2024-01-16T00:09:26;2.50;;;2.00;;
6013;SDS011;3035;49.928;8.410;2024-01-16T00:11:54;8.43;;;2.40;;
6013;SDS011;3035;49.928;8.410;2024-01-16T00:14:21;5.40;;;2.53;;
6013;SDS011;3035;49.928;8.410;2024-01-16T00:16:49;11.20;;;2.93;;
6013;SDS011;3035;49.928;8.410;2024-01-16T00:19:16;8.50;;;2.83;;
6013;SDS011;3035;49.928;8.410;2024-01-16T00:21:44;4.50;;;2.40;;
6013;SDS011;3035;49.928;8.410;2024-01-16T00:24:14;7.27;;;2.20;;
6013;SDS011;3035;49.928;8.410;2024-01-16T00:26:41;7.57;;;2.83;;
6013;SDS011;3035;49.928;8.410;2024-01-16T00:29:08;15.00;;;2.80;;
6013;SDS011;3035;49.928;8.410;2024-01-16T00:31:36;4.17;;;2.20;;
6013;SDS011;3035;49.928;8.410;2024-01-16T00:34:03;4.50;;;2.37;;
6013;SDS011;3035;49.928;8.410;2024-01-16T00:36:31;9.40;;;2.93;;
6013;SDS011;3035;49.928;8.410;2024-01-16T00:38:58;4.33;;;2.30;;
6013;SDS011;3035;49.928;8.410;2024-01-16T00:41:25;2.80;;;2.50;;
6013;SDS011;3035;49.928;8.410;2024-01-16T00:43:53;7.20;;;3.10;;
6013;SDS011;3035;49.928;8.410;2024-01-16T00:46:20;6.10;;;2.67;;
6013;SDS011;3035;49.928;8.410;2024-01-16T00:48:48;5.50;;;2.30;;
6013;SDS011;3035;49.928;8.410;2024-01-16T00:51:15;14.73;;;3.07;;
6013;SDS011;3035;49.928;8.410;2024-01-16T00:53:43;5.30;;;2.60;;
6013;SDS011;3035;49.928;8.410;2024-01-16T00:56:10;13.40;;;3.10;;
6013;SDS011;3035;49.928;8.410;2024-01-16T00:58:38;3.20;;;2.47;;
6013;SDS011;3035;49.928;8.410;2024-01-16T01:01:07;7.90;;;2.60;;
6013;SDS011;3035;49.928;8.410;2024-01-16T01:03:35;4.97;;;2.70;;
6013;SDS011;3035;49.928;8.410;2024-01-16T01:06:03;3.80;;;2.33;;
6013;SDS011;3035;49.928;8.410;2024-01-16T01:08:31;12.03;;;2.73;;
6013;SDS011;3035;49.928;8.410;2024-01-16T01:10:59;7.77;;;2.17;;
6013;SDS011;3035;49.928;8.410;2024-01-16T01:13:28;3.97;;;2.20;;
6013;SDS011;3035;49.928;8.410;2024-01-16T01:15:56;7.80;;;2.67;;
6013;SDS011;3035;49.928;8.410;2024-01-16T01:18:25;4.40;;;2.50;;
6013;SDS011;3035;49.928;8.410;2024-01-16T01:20:53;4.03;;;2.80;;
6013;SDS011;3035;49.928;8.410;2024-01-16T01:23:21;2.80;;;2.60;;
6013;SDS011;3035;49.928;8.410;2024-01-16T01:25:49;2.97;;;2.70;;
6013;SDS011;3035;49.928;8.410;2024-01-16T01:28:18;4.80;;;2.47;;
6013;SDS011;3035;49.928;8.410;2024-01-16T01:30:46;4.37;;;2.60;;
6013;SDS011;3035;49.928;8.410;2024-01-16T01:33:14;6.50;;;2.97;;
6013;SDS011;3035;49.928;8.410;2024-01-16T01:35:42;3.90;;;2.90;;
6013;SDS011;3035;49.928;8.410;2024-01-16T01:38:10;5.20;;;2.80;;
6013;SDS011;3035;49.928;8.410;2024-01-16T01:40:38;5.37;;;2.90;;
6013;SDS011;3035;49.928;8.410;2024-01-16T01:45:43;8.20;;;2.77;;
6013;SDS011;3035;49.928;8.410;2024-01-16T01:48:12;6.00;;;2.67;;
6013;SDS011;3035;49.928;8.410;2024-01-16T01:50:39;10.40;;;2.90;;
6013;SDS011;3035;49.928;8.410;2024-01-16T01:53:07;8.90;;;3.13;;
6013;SDS011;3035;49.928;8.410;2024-01-16T01:55:35;3.47;;;2.80;;
6013;SDS011;3035;49.928;8.410;2024-01-16T01:58:03;5.10;;;2.80;;
6013;SDS011;3035;49.928;8.410;2024-01-16T02:00:32;8.27;;;3.20;;
6013;SDS011;3035;49.928;8.410;2024-01-16T02:03:00;6.63;;;2.73;;
6013;SDS011;3035;49.928;8.410;2024-01-16T02:05:28;6.27;;;2.80;;
6013;SDS011;3035;49.928;8.410;2024-01-16T02:07:56;8.53;;;2.57;;
6013;SDS011;3035;49.928;8.410;2024-01-16T02:10:25;5.40;;;2.43;;
6013;SDS011;3035;49.928;8.410;2024-01-16T02:12:52;3.30;;;2.63;;
6013;SDS011;3035;49.928;8.410;2024-01-16T02:15:21;5.60;;;3.30;;
6013;SDS011;3035;49.928;8.410;2024-01-16T02:17:49;9.93;;;3.07;;
6013;SDS011;3035;49.928;8.410;2024-01-16T02:20:17;6.97;;;2.97;;
6013;SDS011;3035;49.928;8.410;2024-01-16T02:22:45;6.07;;;3.30;;
6013;SDS011;3035;49.928;8.410;2024-01-16T02:25:12;5.07;;;3.07;;
6013;SDS011;3035;49.928;8.410;2024-01-16T02:27:40;6.40;;;2.70;;
6013;SDS011;3035;49.928;8.410;2024-01-16T02:30:09;5.60;;;2.60;;
6013;SDS011;3035;49.928;8.410;2024-01-16T02:32:36;8.00;;;2.90;;
6013;SDS011;3035;49.928;8.410;2024-01-16T02:35:04;4.33;;;2.70;;
6013;SDS011;3035;49.928;8.410;2024-01-16T02:37:31;11.00;;;3.10;;
6013;SDS011;3035;49.928;8.410;2024-01-16T02:39:59;10.90;;;3.20;;
6013;SDS011;3035;49.928;8.410;2024-01-16T02:42:26;4.00;;;2.27;;
6013;SDS011;3035;49.928;8.410;2024-01-16T02:44:54;10.23;;;3.00;;
6013;SDS011;3035;49.928;8.410;2024-01-16T02:47:21;9.03;;;3.17;;
6013;SDS011;3035;49.928;8.410;2024-01-16T02:49:49;18.63;;;2.97;;
6013;SDS011;3035;49.928;8.410;2024-01-16T02:52:16;9.53;;;3.47;;
6013;SDS011;3035;49.928;8.410;2024-01-16T02:54:43;9.23;;;2.83;;
6013;SDS011;3035;49.928;8.410;2024-01-16T02:57:11;7.67;;;2.97;;
6013;SDS011;3035;49.928;8.410;2024-01-16T02:59:38;6.30;;;2.40;;
6013;SDS011;3035;49.928;8.410;2024-01-16T03:02:06;6.73;;;2.97;;
6013;SDS011;3035;49.928;8.410;2024-01-16T03:04:33;9.17;;;2.90;;
6013;SDS011;3035;49.928;8.410;2024-01-16T03:07:01;6.03;;;2.80;;
6013;SDS011;3035;49.928;8.410;2024-01-16T03:09:28;7.97;;;2.30;;
6013;SDS011;3035;49.928;8.410;2024-01-16T03:11:55;7.60;;;3.33;;
6013;SDS011;3035;49.928;8.410;2024-01-16T03:14:23;10.07;;;2.73;;
6013;SDS011;3035;49.928;8.410;2024-01-16T03:16:50;3.50;;;2.83;;
6013;SDS011;3035;49.928;8.410;2024-01-16T03:19:18;5.97;;;2.50;;
6013;SDS011;3035;49.928;8.410;2024-01-16T03:21:45;5.47;;;2.87;;
6013;SDS011;3035;49.928;8.410;2024-01-16T03:24:13;11.13;;;3.07;;
6013;SDS011;3035;49.928;8.410;2024-01-16T03:26:40;10.47;;;4.13;;
6013;SDS011;3035;49.928;8.410;2024-01-16T03:29:07;5.60;;;3.13;;
6013;SDS011;3035;49.928;8.410;2024-01-16T03:31:35;7.00;;;2.60;;
6013;SDS011;3035;49.928;8.410;2024-01-16T03:34:02;6.50;;;2.70;;
6013;SDS011;3035;49.928;8.410;2024-01-16T03:36:30;5.27;;;2.70;;
6013;SDS011;3035;49.928;8.410;2024-01-16T03:38:57;6.73;;;2.87;;
6013;SDS011;3035;49.928;8.410;2024-01-16T03:41:25;6.33;;;3.30;;
6013;SDS011;3035;49.928;8.410;2024-01-16T03:43:52;3.37;;;2.73;;
6013;SDS011;3035;49.928;8.410;2024-01-16T03:46:20;8.00;;;2.90;;
6013;SDS011;3035;49.928;8.410;2024-01-16T03:48:47;4.30;;;2.60;;
6013;SDS011;3035;49.928;8.410;2024-01-16T03:51:14;6.47;;;3.00;;
6013;SDS011;3035;49.928;8.410;2024-01-16T03:53:42;3.83;;;2.93;;
6013;SDS011;3035;49.928;8.410;2024-01-16T03:56:09;6.77;;;2.40;;
6013;SDS011;3035;49.928;8.410;2024-01-16T03:58:37;8.53;;;2.87;;
6013;SDS011;3035;49.928;8.410;2024-01-16T04:01:04;14.30;;;3.53;;
6013;SDS011;3035;49.928;8.410;2024-01-16T04:03:32;4.60;;;2.70;;
6013;SDS011;3035;49.928;8.410;2024-01-16T04:05:59;4.17;;;2.30;;
6013;SDS011;3035;49.928;8.410;2024-01-16T04:08:26;3.70;;;2.60;;
6013;SDS011;3035;49.928;8.410;2024-01-16T04:10:54;7.90;;;3.27;;
6013;SDS011;3035;49.928;8.410;2024-01-16T04:13:21;8.23;;;3.07;;
6013;SDS011;3035;49.928;8.410;2024-01-16T04:15:49;12.23;;;3.33;;
6013;SDS011;3035;49.928;8.410;2024-01-16T04:18:16;6.40;;;3.13;;
6013;SDS011;3035;49.928;8.410;2024-01-16T04:20:44;4.00;;;2.90;;
6013;SDS011;3035;49.928;8.410;2024-01-16T04:23:11;6.20;;;2.20;;
6013;SDS011;3035;49.928;8.410;2024-01-16T04:25:39;9.47;;;3.40;;
6013;SDS011;3035;49.928;8.410;2024-01-16T04:28:06;4.30;;;3.10;;
6013;SDS011;3035;49.928;8.410;2024-01-16T04:30:33;8.70;;;3.20;;
6013;SDS011;3035;49.928;8.410;2024-01-16T04:33:01;4.10;;;2.73;;
6013;SDS011;3035;49.928;8.410;2024-01-16T04:35:28;7.80;;;3.60;;
6013;SDS011;3035;49.928;8.410;2024-01-16T04:37:56;4.47;;;2.93;;
6013;SDS011;3035;49.928;8.410;2024-01-16T04:40:23;6.00;;;3.40;;
6013;SDS011;3035;49.928;8.410;2024-01-16T04:42:51;6.00;;;3.10;;
6013;SDS011;3035;49.928;8.410;2024-01-16T04:45:18;5.03;;;2.97;;
6013;SDS011;3035;49.928;8.410;2024-01-16T04:47:45;8.43;;;3.10;;
6013;SDS011;3035;49.928;8.410;2024-01-16T04:50:13;6.50;;;2.90;;
6013;SDS011;3035;49.928;8.410;2024-01-16T04:52:40;7.33;;;2.50;;
6013;SDS011;3035;49.928;8.410;2024-01-16T04:55:08;12.30;;;2.87;;
6013;SDS011;3035;49.928;8.410;2024-01-16T04:57:35;14.23;;;3.40;;
6013;SDS011;3035;49.928;8.410;2024-01-16T05:00:03;19.20;;;3.40;;
6013;SDS011;3035;49.928;8.410;2024-01-16T05:02:31;3.03;;;2.70;;
6013;SDS011;3035;49.928;8.410;2024-01-16T05:04:59;8.67;;;2.93;;
6013;SDS011;3035;49.928;8.410;2024-01-16T05:07:26;20.63;;;2.83;;
6013;SDS011;3035;49.928;8.410;2024-01-16T05:09:54;5.87;;;3.07;;
6013;SDS011;3035;49.928;8.410;2024-01-16T05:12:21;4.20;;;3.10;;
6013;SDS011;3035;49.928;8.410;2024-01-16T05:14:48;10.97;;;3.07;;
6013;SDS011;3035;49.928;8.410;2024-01-16T05:17:16;7.90;;;3.47;;
6013;SDS011;3035;49.928;8.410;2024-01-16T05:19:43;8.67;;;2.57;;
6013;SDS011;3035;49.928;8.410;2024-01-16T05:22:11;6.47;;;3.00;;
6013;SDS011;3035;49.928;8.410;2024-01-16T05:24:38;3.40;;;2.57;;
6013;SDS011;3035;49.928;8.410;2024-01-16T05:27:06;9.20;;;2.90;;
6013;SDS011;3035;49.928;8.410;2024-01-16T05:29:34;4.13;;;3.20;;
6013;SDS011;3035;49.928;8.410;2024-01-16T05:32:04;5.30;;;2.83;;
6013;SDS011;3035;49.928;8.410;2024-01-16T05:34:32;6.13;;;2.83;;
6013;SDS011;3035;49.928;8.410;2024-01-16T05:37:01;5.13;;;2.50;;
6013;SDS011;3035;49.928;8.410;2024-01-16T05:39:28;7.67;;;2.70;;
6013;SDS011;3035;49.928;8.410;2024-01-16T05:41:56;3.80;;;2.70;;
6013;SDS011;3035;49.928;8.410;2024-01-16T05:44:23;8.43;;;3.10;;
6013;SDS011;3035;49.928;8.410;2024-01-16T05:46:50;10.73;;;3.03;;
6013;SDS011;3035;49.928;8.410;2024-01-16T05:49:18;4.70;;;2.67;;
6013;SDS011;3035;49.928;8.410;2024-01-16T05:51:45;5.27;;;3.20;;
6013;SDS011;3035;49.928;8.410;2024-01-16T05:54:13;4.30;;;2.93;;
6013;SDS011;3035;49.928;8.410;2024-01-16T05:56:40;4.87;;;3.00;;
6013;SDS011;3035;49.928;8.410;2024-01-16T05:59:08;8.13;;;3.07;;
6013;SDS011;3035;49.928;8.410;2024-01-16T06:01:35;6.87;;;3.53;;
6013;SDS011;3035;49.928;8.410;2024-01-16T06:04:03;10.00;;;3.33;;
6013;SDS011;3035;49.928;8.410;2024-01-16T06:06:30;5.90;;;2.47;;
6013;SDS011;3035;49.928;8.410;2024-01-16T06:08:58;11.03;;;3.73;;
6013;SDS011;3035;49.928;8.410;2024-01-16T06:11:29;7.80;;;3.87;;
6013;SDS011;3035;49.928;8.410;2024-01-16T06:13:57;8.20;;;3.87;;
6013;SDS011;3035;49.928;8.410;2024-01-16T06:16:24;6.17;;;3.07;;
6013;SDS011;3035;49.928;8.410;2024-01-16T06:18:52;6.03;;;3.43;;
6013;SDS011;3035;49.928;8.410;2024-01-16T06:21:19;10.43;;;2.63;;
6013;SDS011;3035;49.928;8.410;2024-01-16T06:23:47;5.03;;;2.53;;
6013;SDS011;3035;49.928;8.410;2024-01-16T06:26:14;6.53;;;2.77;;
6013;SDS011;3035;49.928;8.410;2024-01-16T06:28:41;5.20;;;3.30;;
6013;SDS011;3035;49.928;8.410;2024-01-16T06:31:09;5.60;;;2.47;;
6013;SDS011;3035;49.928;8.410;2024-01-16T06:33:36;9.23;;;2.33;;
6013;SDS011;3035;49.928;8.410;2024-01-16T06:36:04;4.30;;;2.80;;
6013;SDS011;3035;49.928;8.410;2024-01-16T06:38:32;11.07;;;2.67;;
6013;SDS011;3035;49.928;8.410;2024-01-16T06:40:59;7.13;;;3.00;;
6013;SDS011;3035;49.928;8.410;2024-01-16T06:43:27;8.17;;;3.23;;
6013;SDS011;3035;49.928;8.410;2024-01-16T06:45:54;3.90;;;3.27;;
6013;SDS011;3035;49.928;8.410;2024-01-16T06:48:22;6.07;;;3.70;;
6013;SDS011;3035;49.928;8.410;2024-01-16T06:50:49;9.20;;;3.73;;
6013;SDS011;3035;49.928;8.410;2024-01-16T06:53:16;5.93;;;4.00;;
6013;SDS011;3035;49.928;8.410;2024-01-16T06:55:44;6.90;;;4.07;;
6013;SDS011;3035;49.928;8.410;2024-01-16T06:58:11;6.03;;;4.40;;
6013;SDS011;3035;49.928;8.410;2024-01-16T07:00:39;7.37;;;4.27;;
6013;SDS011;3035;49.928;8.410;2024-01-16T07:03:06;4.07;;;3.73;;
6013;SDS011;3035;49.928;8.410;2024-01-16T07:05:33;9.07;;;4.10;;
6013;SDS011;3035;49.928;8.410;2024-01-16T07:08:01;5.70;;;4.27;;
6013;SDS011;3035;49.928;8.410;2024-01-16T07:10:28;9.20;;;4.97;;
6013;SDS011;3035;49.928;8.410;2024-01-16T07:12:56;7.77;;;4.80;;
6013;SDS011;3035;49.928;8.410;2024-01-16T07:15:23;10.67;;;3.87;;
6013;SDS011;3035;49.928;8.410;2024-01-16T07:17:51;5.00;;;3.83;;
6013;SDS011;3035;49.928;8.410;2024-01-16T07:20:18;5.43;;;3.73;;
6013;SDS011;3035;49.928;8.410;2024-01-16T07:22:46;11.03;;;5.10;;
6013;SDS011;3035;49.928;8.410;2024-01-16T07:25:13;6.47;;;4.70;;
6013;SDS011;3035;49.928;8.410;2024-01-16T07:27:40;9.07;;;5.17;;
6013;SDS011;3035;49.928;8.410;2024-01-16T07:30:08;6.53;;;4.13;;
6013;SDS011;3035;49.928;8.410;2024-01-16T07:32:36;11.43;;;4.80;;
6013;SDS011;3035;49.928;8.410;2024-01-16T07:35:03;11.23;;;5.40;;
6013;SDS011;3035;49.928;8.410;2024-01-16T07:37:31;8.73;;;4.17;;
6013;SDS011;3035;49.928;8.410;2024-01-16T07:39:58;9.20;;;4.60;;
6013;SDS011;3035;49.928;8.410;2024-01-16T07:42:26;8.87;;;5.00;;
6013;SDS011;3035;49.928;8.410;2024-01-16T07:44:53;15.00;;;5.57;;
6013;SDS011;3035;49.928;8.410;2024-01-16T07:47:20;12.73;;;5.23;;
6013;SDS011;3035;49.928;8.410;2024-01-16T07:49:48;11.13;;;5.17;;
6013;SDS011;3035;49.928;8.410;2024-01-16T07:52:15;12.47;;;5.00;;
6013;SDS011;3035;49.928;8.410;2024-01-16T07:54:43;13.13;;;5.27;;
6013;SDS011;3035;49.928;8.410;2024-01-16T07:57:10;16.93;;;4.87;;
6013;SDS011;3035;49.928;8.410;2024-01-16T07:59:38;6.23;;;4.00;;
6013;SDS011;3035;49.928;8.410;2024-01-16T08:02:05;11.30;;;4.87;;
6013;SDS011;3035;49.928;8.410;2024-01-16T08:04:32;22.23;;;4.73;;
6013;SDS011;3035;49.928;8.410;2024-01-16T08:07:00;9.00;;;4.77;;
6013;SDS011;3035;49.928;8.410;2024-01-16T08:09:27;9.53;;;4.30;;
6013;SDS011;3035;49.928;8.410;2024-01-16T08:11:55;11.60;;;4.80;;
6013;SDS011;3035;49.928;8.410;2024-01-16T08:14:22;10.27;;;5.63;;
6013;SDS011;3035;49.928;8.410;2024-01-16T08:16:50;11.33;;;5.40;;
6013;SDS011;3035;49.928;8.410;2024-01-16T08:19:17;32.00;;;6.27;;
6013;SDS011;3035;49.928;8.410;2024-01-16T08:21:45;13.10;;;6.10;;
6013;SDS011;3035;49.928;8.410;2024-01-16T08:24:12;12.27;;;5.80;;
6013;SDS011;3035;49.928;8.410;2024-01-16T08:26:39;8.57;;;6.30;;
6013;SDS011;3035;49.928;8.410;2024-01-16T08:29:07;12.13;;;7.17;;
6013;SDS011;3035;49.928;8.410;2024-01-16T08:31:34;12.00;;;6.53;;
6013;SDS011;3035;49.928;8.410;2024-01-16T08:34:02;14.80;;;7.20;;
6013;SDS011;3035;49.928;8.410;2024-01-16T08:36:29;12.70;;;6.97;;
6013;SDS011;3035;49.928;8.410;2024-01-16T08:38:57;17.33;;;7.57;;
6013;SDS011;3035;49.928;8.410;2024-01-16T08:41:24;9.73;;;6.00;;
6013;SDS011;3035;49.928;8.410;2024-01-16T08:43:52;13.90;;;6.27;;
6013;SDS011;3035;49.928;8.410;2024-01-16T08:46:19;11.17;;;6.20;;
6013;SDS011;3035;49.928;8.410;2024-01-16T08:48:46;12.77;;;5.60;;
6013;SDS011;3035;49.928;8.410;2024-01-16T08:51:14;12.70;;;5.93;;
6013;SDS011;3035;49.928;8.410;2024-01-16T08:53:41;11.10;;;6.37;;
6013;SDS011;3035;49.928;8.410;2024-01-16T08:56:09;12.00;;;6.13;;
6013;SDS011;3035;49.928;8.410;2024-01-16T08:58:36;17.43;;;6.20;;
6013;SDS011;3035;49.928;8.410;2024-01-16T09:01:04;14.60;;;6.60;;
6013;SDS011;3035;49.928;8.410;2024-01-16T09:03:33;13.57;;;6.27;;
6013;SDS011;3035;49.928;8.410;2024-01-16T09:06:00;13.40;;;6.07;;
6013;SDS011;3035;49.928;8.410;2024-01-16T09:08:28;21.57;;;6.67;;
6013;SDS011;3035;49.928;8.410;2024-01-16T09:10:55;10.53;;;5.50;;
6013;SDS011;3035;49.928;8.410;2024-01-16T09:13:22;14.70;;;6.23;;
6013;SDS011;3035;49.928;8.410;2024-01-16T09:15:49;8.20;;;4.47;;
6013;SDS011;3035;49.928;8.410;2024-01-16T09:18:17;12.27;;;6.30;;
6013;SDS011;3035;49.928;8.410;2024-01-16T09:20:44;11.67;;;5.50;;
6013;SDS011;3035;49.928;8.410;2024-01-16T09:23:12;10.93;;;5.40;;
6013;SDS011;3035;49.928;8.410;2024-01-16T09:25:39;10.13;;;6.10;;
6013;SDS011;3035;49.928;8.410;2024-01-16T09:28:06;16.07;;;8.57;;
6013;SDS011;3035;49.928;8.410;2024-01-16T09:30:34;12.97;;;7.90;;
6013;SDS011;3035;49.928;8.410;2024-01-16T09:33:01;13.50;;;5.77;;
6013;SDS011;3035;49.928;8.410;2024-01-16T09:35:29;9.13;;;5.00;;
6013;SDS011;3035;49.928;8.410;2024-01-16T09:37:56;19.43;;;5.53;;
6013;SDS011;3035;49.928;8.410;2024-01-16T09:40:24;10.40;;;4.90;;
6013;SDS011;3035;49.928;8.410;2024-01-16T09:42:51;14.63;;;5.77;;
6013;SDS011;3035;49.928;8.410;2024-01-16T09:45:20;7.80;;;4.60;;
6013;SDS011;3035;49.928;8.410;2024-01-16T09:47:46;12.23;;;4.83;;
6013;SDS011;3035;49.928;8.410;2024-01-16T09:50:14;12.30;;;4.57;;
6013;SDS011;3035;49.928;8.410;2024-01-16T09:52:41;9.13;;;5.07;;
6013;SDS011;3035;49.928;8.410;2024-01-16T09:55:08;12.73;;;4.63;;
6013;SDS011;3035;49.928;8.410;2024-01-16T09:57:36;6.70;;;4.60;;
6013;SDS011;3035;49.928;8.410;2024-01-16T10:00:03;13.73;;;4.70;;
6013;SDS011;3035;49.928;8.410;2024-01-16T10:02:31;10.87;;;4.67;;
6013;SDS011;3035;49.928;8.410;2024-01-16T10:04:59;9.80;;;5.50;;
6013;SDS011;3035;49.928;8.410;2024-01-16T10:07:26;21.67;;;6.03;;
6013;SDS011;3035;49.928;8.410;2024-01-16T10:09:57;11.40;;;5.70;;
6013;SDS011;3035;49.928;8.410;2024-01-16T10:12:24;11.93;;;5.37;;
6013;SDS011;3035;49.928;8.410;2024-01-16T10:14:51;15.07;;;4.90;;
6013;SDS011;3035;49.928;8.410;2024-01-16T10:17:19;12.57;;;5.40;;
6013;SDS011;3035;49.928;8.410;2024-01-16T10:19:48;13.43;;;5.33;;
6013;SDS011;3035;49.928;8.410;2024-01-16T10:22:20;13.27;;;4.97;;
6013;SDS011;3035;49.928;8.410;2024-01-16T10:24:46;9.73;;;4.80;;
6013;SDS011;3035;49.928;8.410;2024-01-16T10:27:15;10.53;;;5.60;;
6013;SDS011;3035;49.928;8.410;2024-01-16T10:29:54;8.40;;;4.80;;
6013;SDS011;3035;49.928;8.410;2024-01-16T10:32:26;11.30;;;5.00;;
6013;SDS011;3035;49.928;8.410;2024-01-16T10:34:47;14.43;;;4.90;;
6013;SDS011;3035;49.928;8.410;2024-01-16T10:37:15;12.10;;;5.30;;
6013;SDS011;3035;49.928;8.410;2024-01-16T10:39:43;8.73;;;5.30;;
6013;SDS011;3035;49.928;8.410;2024-01-16T10:42:10;11.03;;;4.83;;
6013;SDS011;3035;49.928;8.410;2024-01-16T10:44:52;11.60;;;5.77;;
6013;SDS011;3035;49.928;8.410;2024-01-16T10:47:09;14.27;;;5.40;;
6013;SDS011;3035;49.928;8.410;2024-01-16T10:49:37;11.20;;;5.00;;
6013;SDS011;3035;49.928;8.410;2024-01-16T10:52:06;9.63;;;4.97;;
6013;SDS011;3035;49.928;8.410;2024-01-16T10:54:32;9.47;;;5.30;;
6013;SDS011;3035;49.928;8.410;2024-01-16T10:57:00;11.43;;;5.50;;
6013;SDS011;3035;49.928;8.410;2024-01-16T10:59:31;16.87;;;7.43;;
6013;SDS011;3035;49.928;8.410;2024-01-16T11:01:59;16.00;;;9.77;;
6013;SDS011;3035;49.928;8.410;2024-01-16T11:04:28;17.63;;;6.77;;
6013;SDS011;3035;49.928;8.410;2024-01-16T11:06:56;14.63;;;5.97;;
6013;SDS011;3035;49.928;8.410;2024-01-16T11:09:24;10.70;;;5.10;;
6013;SDS011;3035;49.928;8.410;2024-01-16T11:11:53;14.33;;;4.43;;
6013;SDS011;3035;49.928;8.410;2024-01-16T11:14:20;9.30;;;5.03;;
6013;SDS011;3035;49.928;8.410;2024-01-16T11:16:48;11.20;;;5.33;;
6013;SDS011;3035;49.928;8.410;2024-01-16T11:19:16;8.90;;;4.53;;
6013;SDS011;3035;49.928;8.410;2024-01-16T11:21:45;7.80;;;5.00;;
6013;SDS011;3035;49.928;8.410;2024-01-16T11:24:12;7.60;;;4.00;;
6013;SDS011;3035;49.928;8.410;2024-01-16T11:26:40;13.80;;;4.80;;
6013;SDS011;3035;49.928;8.410;2024-01-16T11:31:49;8.03;;;4.00;;
6013;SDS011;3035;49.928;8.410;2024-01-16T11:34:17;7.73;;;4.20;;
6013;SDS011;3035;49.928;8.410;2024-01-16T11:36:49;8.37;;;4.97;;
6013;SDS011;3035;49.928;8.410;2024-01-16T11:39:17;8.40;;;4.87;;
6013;SDS011;3035;49.928;8.410;2024-01-16T11:41:48;7.43;;;4.60;;
6013;SDS011;3035;49.928;8.410;2024-01-16T11:47:00;10.50;;;4.87;;
6013;SDS011;3035;49.928;8.410;2024-01-16T11:49:27;14.30;;;8.07;;
6013;SDS011;3035;49.928;8.410;2024-01-16T11:51:56;10.97;;;5.63;;
6013;SDS011;3035;49.928;8.410;2024-01-16T11:54:24;11.70;;;5.00;;
6013;SDS011;3035;49.928;8.410;2024-01-16T11:56:58;9.50;;;4.60;;
6013;SDS011;3035;49.928;8.410;2024-01-16T12:02:09;11.50;;;5.30;;
6013;SDS011;3035;49.928;8.410;2024-01-16T12:04:35;9.97;;;4.60;;
6013;SDS011;3035;49.928;8.410;2024-01-16T12:07:02;10.70;;;4.20;;
6013;SDS011;3035;49.928;8.410;2024-01-16T12:09:31;9.57;;;4.30;;
6013;SDS011;3035;49.928;8.410;2024-01-16T12:12:00;11.83;;;5.20;;
6013;SDS011;3035;49.928;8.410;2024-01-16T12:14:27;4.33;;;3.50;;
6013;SDS011;3035;49.928;8.410;2024-01-16T12:19:35;10.00;;;4.10;;
6013;SDS011;3035;49.928;8.410;2024-01-16T12:22:03;11.63;;;5.47;;
6013;SDS011;3035;49.928;8.410;2024-01-16T12:24:31;12.77;;;5.87;;
6013;SDS011;3035;49.928;8.410;2024-01-16T12:27:00;13.10;;;6.43;;
6013;SDS011;3035;49.928;8.410;2024-01-16T12:29:28;14.37;;;4.87;;
6013;SDS011;3035;49.928;8.410;2024-01-16T12:34:33;17.20;;;5.63;;
6013;SDS011;3035;49.928;8.410;2024-01-16T12:37:04;10.57;;;5.00;;
6013;SDS011;3035;49.928;8.410;2024-01-16T12:39:33;11.73;;;5.20;;
6013;SDS011;3035;49.928;8.410;2024-01-16T12:42:00;9.50;;;4.60;;
6013;SDS011;3035;49.928;8.410;2024-01-16T12:44:28;12.07;;;4.63;;
6013;SDS011;3035;49.928;8.410;2024-01-16T12:46:56;10.60;;;5.03;;
6013;SDS011;3035;49.928;8.410;2024-01-16T12:49:24;12.50;;;4.83;;
6013;SDS011;3035;49.928;8.410;2024-01-16T12:51:52;9.10;;;5.13;;
6013;SDS011;3035;49.928;8.410;2024-01-16T12:54:20;8.60;;;4.77;;
6013;SDS011;3035;49.928;8.410;2024-01-16T12:56:57;12.40;;;5.67;;
6013;SDS011;3035;49.928;8.410;2024-01-16T12:59:16;10.17;;;5.40;;
6013;SDS011;3035;49.928;8.410;2024-01-16T13:01:45;8.63;;;4.60;;
6013;SDS011;3035;49.928;8.410;2024-01-16T13:04:12;23.47;;;6.70;;
6013;SDS011;3035;49.928;8.410;2024-01-16T13:06:40;7.93;;;5.10;;
6013;SDS011;3035;49.928;8.410;2024-01-16T13:09:09;14.90;;;5.70;;
6013;SDS011;3035;49.928;8.410;2024-01-16T13:11:44;16.23;;;5.40;;
6013;SDS011;3035;49.928;8.410;2024-01-16T13:14:12;12.23;;;6.07;;
6013;SDS011;3035;49.928;8.410;2024-01-16T13:16:39;10.23;;;5.40;;
6013;SDS011;3035;49.928;8.410;2024-01-16T13:19:07;13.40;;;5.13;;
6013;SDS011;3035;49.928;8.410;2024-01-16T13:21:36;11.27;;;4.23;;
6013;SDS011;3035;49.928;8.410;2024-01-16T13:24:03;7.00;;;4.53;;
6013;SDS011;3035;49.928;8.410;2024-01-16T13:26:32;15.60;;;5.90;;
6013;SDS011;3035;49.928;8.410;2024-01-16T13:29:00;7.50;;;4.50;;
6013;SDS011;3035;49.928;8.410;2024-01-16T13:31:28;13.63;;;5.13;;
6013;SDS011;3035;49.928;8.410;2024-01-16T13:33:56;10.30;;;3.97;;
6013;SDS011;3035;49.928;8.410;2024-01-16T13:36:24;10.93;;;4.10;;
6013;SDS011;3035;49.928;8.410;2024-01-16T13:38:53;11.23;;;4.93;;
6013;SDS011;3035;49.928;8.410;2024-01-16T13:41:20;21.60;;;8.30;;
6013;SDS011;3035;49.928;8.410;2024-01-16T13:43:50;20.83;;;9.60;;
6013;SDS011;3035;49.928;8.410;2024-01-16T13:46:17;10.67;;;5.53;;
6013;SDS011;3035;49.928;8.410;2024-01-16T13:48:44;10.10;;;4.00;;
6013;SDS011;3035;49.928;8.410;2024-01-16T13:51:13;13.00;;;4.13;;
6013;SDS011;3035;49.928;8.410;2024-01-16T13:53:41;9.03;;;4.07;;
6013;SDS011;3035;49.928;8.410;2024-01-16T13:56:09;9.53;;;4.23;;
6013;SDS011;3035;49.928;8.410;2024-01-16T13:58:36;13.53;;;5.00;;
6013;SDS011;3035;49.928;8.410;2024-01-16T14:01:04;10.93;;;4.93;;
6013;SDS011;3035;49.928;8.410;2024-01-16T14:03:32;17.63;;;5.40;;
6013;SDS011;3035;49.928;8.410;2024-01-16T14:06:00;18.10;;;5.93;;
6013;SDS011;3035;49.928;8.410;2024-01-16T14:08:29;8.43;;;4.60;;
6013;SDS011;3035;49.928;8.410;2024-01-16T14:10:57;8.80;;;4.10;;
6013;SDS011;3035;49.928;8.410;2024-01-16T14:13:25;7.37;;;3.27;;
6013;SDS011;3035;49.928;8.410;2024-01-16T14:15:54;8.77;;;4.87;;
6013;SDS011;3035;49.928;8.410;2024-01-16T14:18:22;20.60;;;7.70;;
6013;SDS011;3035;49.928;8.410;2024-01-16T14:20:50;16.13;;;5.30;;
6013;SDS011;3035;49.928;8.410;2024-01-16T14:23:18;7.53;;;4.93;;
6013;SDS011;3035;49.928;8.410;2024-01-16T14:25:46;7.97;;;3.70;;
6013;SDS011;3035;49.928;8.410;2024-01-16T14:28:14;5.70;;;4.00;;
6013;SDS011;3035;49.928;8.410;2024-01-16T14:30:42;7.37;;;3.20;;
6013;SDS011;3035;49.928;8.410;2024-01-16T14:33:10;8.67;;;3.60;;
6013;SDS011;3035;49.928;8.410;2024-01-16T14:35:39;10.60;;;3.87;;
6013;SDS011;3035;49.928;8.410;2024-01-16T14:38:07;4.43;;;2.30;;
6013;SDS011;3035;49.928;8.410;2024-01-16T14:40:35;8.00;;;2.63;;
6013;SDS011;3035;49.928;8.410;2024-01-16T14:43:03;3.80;;;2.70;;
6013;SDS011;3035;49.928;8.410;2024-01-16T14:45:31;9.43;;;3.17;;
6013;SDS011;3035;49.928;8.410;2024-01-16T14:47:59;18.70;;;7.73;;
6013;SDS011;3035;49.928;8.410;2024-01-16T14:50:27;13.60;;;6.57;;
6013;SDS011;3035;49.928;8.410;2024-01-16T14:52:55;10.80;;;4.70;;
6013;SDS011;3035;49.928;8.410;2024-01-16T14:55:23;11.77;;;3.07;;
6013;SDS011;3035;49.928;8.410;2024-01-16T14:57:51;10.73;;;2.50;;
6013;SDS011;3035;49.928;8.410;2024-01-16T15:00:20;12.13;;;3.13;;
6013;SDS011;3035;49.928;8.410;2024-01-16T15:02:51;8.93;;;3.00;;
6013;SDS011;3035;49.928;8.410;2024-01-16T15:05:19;9.43;;;3.50;;
6013;SDS011;3035;49.928;8.410;2024-01-16T15:07:48;13.37;;;3.67;;
6013;SDS011;3035;49.928;8.410;2024-01-16T15:10:16;8.50;;;3.27;;
6013;SDS011;3035;49.928;8.410;2024-01-16T15:12:44;6.50;;;3.23;;
6013;SDS011;3035;49.928;8.410;2024-01-16T15:15:12;11.93;;;3.07;;
6013;SDS011;3035;49.928;8.410;2024-01-16T15:17:41;13.50;;;3.30;;
6013;SDS011;3035;49.928;8.410;2024-01-16T15:20:08;7.50;;;3.30;;
6013;SDS011;3035;49.928;8.410;2024-01-16T15:22:37;7.83;;;2.73;;
6013;SDS011;3035;49.928;8.410;2024-01-16T15:25:04;6.40;;;2.27;;
6013;SDS011;3035;49.928;8.410;2024-01-16T15:27:32;14.10;;;5.10;;
6013;SDS011;3035;49.928;8.410;2024-01-16T15:29:59;19.73;;;5.90;;